Terminal Aerodrome Forecast
Issued by NWS

Home | Current Version | Previous Version | Text Only | Print | Product List | Glossary On
Versions: 1 2 3 4 5 6 7 8 9 10 11 12 13 14 15 16 17 18
000
FTUS46 KMTR 300529
TAFOAK
TAF
KOAK 300529Z 3006/0112 27006KT P6SM FEW010
     FM301200 32004KT P6SM BKN006
     FM301700 29005KT P6SM FEW008 SCT010
     FM301900 30012KT P6SM SKC
     FM010400 30005KT P6SM FEW010=

USA.gov is the U.S. government's official web portal to all federal, state and local government web resources and services.